createdAt,value
2019-04-29T00:00:32.318Z,4.20
2019-04-29T00:03:03.374Z,4.10
2019-04-29T00:05:34.198Z,4.70
2019-04-29T00:08:05.044Z,4.23
2019-04-29T00:10:35.880Z,4.90
2019-04-29T00:13:06.698Z,4.90
2019-04-29T00:15:39.660Z,4.50
2019-04-29T00:18:23.610Z,4.53
2019-04-29T00:20:54.608Z,4.93
2019-04-29T00:23:25.319Z,4.77
2019-04-29T00:25:56.068Z,4.80
2019-04-29T00:28:26.888Z,4.73
2019-04-29T00:30:57.821Z,5.50
2019-04-29T00:33:28.760Z,5.47
2019-04-29T00:35:59.599Z,5.13
2019-04-29T00:38:34.828Z,5.80
2019-04-29T00:41:07.174Z,5.97
2019-04-29T00:43:51.453Z,6.03
2019-04-29T00:46:22.299Z,5.60
2019-04-29T00:48:53.117Z,5.43
2019-04-29T00:51:23.865Z,5.93
2019-04-29T00:53:56.337Z,5.37
2019-04-29T00:56:29.843Z,6.00
2019-04-29T00:59:00.288Z,5.60
2019-04-29T01:01:30.993Z,6.57
2019-04-29T01:04:01.730Z,5.97
2019-04-29T01:06:32.469Z,6.17
2019-04-29T01:09:03.824Z,6.43
2019-04-29T01:11:34.863Z,6.40
2019-04-29T01:14:05.604Z,6.70
2019-04-29T01:16:36.493Z,6.60
2019-04-29T01:19:07.286Z,5.63
2019-04-29T01:21:38.096Z,6.40
2019-04-29T01:24:08.837Z,6.07
2019-04-29T01:26:47.161Z,6.80
2019-04-29T01:29:19.532Z,6.30
2019-04-29T01:31:50.278Z,6.67
2019-04-29T01:34:25.191Z,7.00
2019-04-29T01:36:55.955Z,7.13
2019-04-29T01:39:31.561Z,7.63
2019-04-29T01:42:09.485Z,7.63
2019-04-29T01:44:40.205Z,7.70
2019-04-29T01:47:10.647Z,8.30
2019-04-29T01:49:41.401Z,9.67
2019-04-29T01:52:12.093Z,8.00
2019-04-29T01:54:42.844Z,8.70
2019-04-29T01:57:13.575Z,8.87
2019-04-29T01:59:44.322Z,9.43
2019-04-29T02:02:14.747Z,9.17
2019-04-29T02:04:45.687Z,9.33
2019-04-29T02:07:16.405Z,9.87
2019-04-29T02:09:51.439Z,9.93
2019-04-29T02:12:22.289Z,9.50
2019-04-29T02:14:53.114Z,9.83
2019-04-29T02:17:23.850Z,10.70
2019-04-29T02:19:54.681Z,10.60
2019-04-29T02:22:29.926Z,11.07
2019-04-29T02:25:02.403Z,11.70
2019-04-29T02:27:33.143Z,11.17
2019-04-29T02:30:06.535Z,10.53
2019-04-29T02:32:37.329Z,10.97
2019-04-29T02:35:08.412Z,11.23
2019-04-29T02:37:40.804Z,11.67
2019-04-29T02:40:16.022Z,11.33
2019-04-29T02:42:48.180Z,11.20
2019-04-29T02:45:20.588Z,11.40
2019-04-29T02:47:51.356Z,12.37
2019-04-29T02:50:22.275Z,12.27
2019-04-29T02:52:53.089Z,11.67
2019-04-29T02:55:25.580Z,11.87
2019-04-29T02:58:03.572Z,11.33
2019-04-29T03:00:38.825Z,12.33
2019-04-29T03:03:11.270Z,12.50
2019-04-29T03:05:49.888Z,11.97
2019-04-29T03:08:20.307Z,12.83
2019-04-29T03:10:51.074Z,12.77
2019-04-29T03:13:22.201Z,12.77
2019-04-29T03:15:53.247Z,12.40
2019-04-29T03:18:25.714Z,12.77
2019-04-29T03:20:58.191Z,13.37
2019-04-29T03:23:29.368Z,13.87
2019-04-29T03:26:00.171Z,14.03
2019-04-29T03:28:30.906Z,14.27
2019-04-29T03:31:01.421Z,14.23
2019-04-29T03:33:32.476Z,15.10
2019-04-29T03:36:03.413Z,14.90
2019-04-29T03:38:34.168Z,15.23
2019-04-29T03:41:05.006Z,14.60
2019-04-29T03:43:35.486Z,15.03
2019-04-29T03:46:06.252Z,14.60
2019-04-29T03:48:37.077Z,15.57
2019-04-29T03:51:07.838Z,16.07
2019-04-29T03:53:38.677Z,15.57
2019-04-29T03:56:09.394Z,16.47
2019-04-29T03:58:40.218Z,17.20
2019-04-29T04:01:12.709Z,16.83
2019-04-29T04:03:47.842Z,17.93
2019-04-29T04:06:36.500Z,17.73
2019-04-29T04:09:08.977Z,17.80
2019-04-29T04:11:39.791Z,17.80
2019-04-29T04:14:10.550Z,17.93
2019-04-29T04:16:57.963Z,18.10
2019-04-29T04:19:30.611Z,18.60
2019-04-29T04:22:01.406Z,19.33
2019-04-29T04:24:32.211Z,19.00
2019-04-29T04:27:03.050Z,19.47
2019-04-29T04:29:33.783Z,20.07
2019-04-29T04:32:04.620Z,19.70
2019-04-29T04:34:35.456Z,21.47
2019-04-29T04:37:05.871Z,20.77
2019-04-29T04:39:38.311Z,20.70
2019-04-29T04:42:09.204Z,20.23
2019-04-29T04:44:49.269Z,21.50
2019-04-29T04:47:20.500Z,21.93
2019-04-29T04:49:51.364Z,22.23
2019-04-29T04:52:22.162Z,21.73
2019-04-29T04:54:54.541Z,22.07
2019-04-29T04:57:25.377Z,22.57
2019-04-29T04:59:55.792Z,22.33
2019-04-29T05:02:26.740Z,21.87
2019-04-29T05:04:57.514Z,21.80
2019-04-29T05:07:28.419Z,22.80
2019-04-29T05:09:59.163Z,22.07
2019-04-29T05:12:30.059Z,22.57
2019-04-29T05:15:00.939Z,21.90
2019-04-29T05:17:31.876Z,22.57
2019-04-29T05:20:02.260Z,20.87
2019-04-29T05:22:32.746Z,23.33
2019-04-29T05:25:05.068Z,22.10
2019-04-29T05:27:38.302Z,21.67
2019-04-29T05:30:09.455Z,23.50
2019-04-29T05:32:40.270Z,23.10
2019-04-29T05:35:13.085Z,23.10
2019-04-29T05:38:00.792Z,22.07
2019-04-29T05:40:38.918Z,21.17
2019-04-29T05:43:14.139Z,22.60
2019-04-29T05:45:49.161Z,22.13
2019-04-29T05:48:20.428Z,21.60
2019-04-29T05:50:55.449Z,21.67
2019-04-29T05:53:28.205Z,21.33
2019-04-29T05:55:58.630Z,20.80
2019-04-29T05:58:32.959Z,20.40
2019-04-29T06:01:03.505Z,18.90
2019-04-29T06:03:37.862Z,20.07
2019-04-29T06:06:07.239Z,21.80
2019-04-29T06:08:39.211Z,20.13
2019-04-29T06:11:10.446Z,20.57
2019-04-29T06:13:41.180Z,21.80
2019-04-29T06:16:16.019Z,20.50
2019-04-29T06:18:44.484Z,21.83
2019-04-29T06:21:15.224Z,21.10
2019-04-29T06:23:45.681Z,22.07
2019-04-29T06:26:16.531Z,22.80
2019-04-29T06:28:47.446Z,22.97
2019-04-29T06:31:18.271Z,19.97
2019-04-29T06:33:49.014Z,22.10
2019-04-29T06:36:19.739Z,23.00
2019-04-29T06:38:50.457Z,22.37
2019-04-29T06:41:21.192Z,21.80
2019-04-29T06:43:54.173Z,22.70
2019-04-29T06:46:24.012Z,21.67
2019-04-29T06:48:54.510Z,22.23
2019-04-29T06:51:25.394Z,22.10
2019-04-29T06:53:56.107Z,22.20
2019-04-29T06:56:27.082Z,20.80
2019-04-29T06:58:57.870Z,19.77
2019-04-29T07:01:28.616Z,18.90
2019-04-29T07:03:59.909Z,19.67
2019-04-29T07:06:31.204Z,18.40
2019-04-29T07:09:01.713Z,18.30
2019-04-29T07:11:36.631Z,18.37
2019-04-29T07:14:05.048Z,17.80
2019-04-29T07:16:35.814Z,18.17
2019-04-29T07:19:06.547Z,15.90
2019-04-29T07:21:37.461Z,16.67
2019-04-29T07:24:08.197Z,15.77
2019-04-29T07:26:39.058Z,15.47
2019-04-29T07:29:09.876Z,15.00
2019-04-29T07:31:40.702Z,16.70
2019-04-29T07:34:11.463Z,16.23
2019-04-29T07:36:42.281Z,17.07
2019-04-29T07:39:13.114Z,17.07
2019-04-29T07:41:43.522Z,15.73
2019-04-29T07:44:18.366Z,15.70
2019-04-29T07:46:56.833Z,15.33
2019-04-29T07:49:21.094Z,16.63
2019-04-29T07:51:52.232Z,15.20
2019-04-29T07:54:23.037Z,15.53
2019-04-29T07:56:53.776Z,17.40
2019-04-29T07:59:24.782Z,19.43
2019-04-29T08:01:59.682Z,17.03
2019-04-29T08:04:28.255Z,18.10
2019-04-29T08:06:59.490Z,19.77
2019-04-29T08:09:30.417Z,19.77
2019-04-29T08:12:01.576Z,20.70
2019-04-29T08:14:33.846Z,19.47
2019-04-29T08:17:04.680Z,21.00
2019-04-29T08:19:35.509Z,20.70
2019-04-29T08:22:06.365Z,21.80
2019-04-29T08:24:37.532Z,21.23
2019-04-29T08:27:08.535Z,22.67
2019-04-29T08:29:39.357Z,24.93
2019-04-29T08:32:10.208Z,22.73
2019-04-29T08:34:41.065Z,21.80
2019-04-29T08:37:11.527Z,22.10
2019-04-29T08:39:42.291Z,25.97
2019-04-29T08:42:23.789Z,21.30
2019-04-29T08:45:04.429Z,22.17
2019-04-29T08:47:36.823Z,19.67
2019-04-29T08:50:07.277Z,23.83
2019-04-29T08:52:38.278Z,21.47
2019-04-29T08:55:09.484Z,21.97
2019-04-29T08:57:40.267Z,24.07
2019-04-29T09:00:11.400Z,22.07
2019-04-29T09:02:47.296Z,21.73
2019-04-29T09:05:14.729Z,22.07
2019-04-29T09:07:45.502Z,23.07
2019-04-29T09:10:16.525Z,25.27
2019-04-29T09:12:47.012Z,24.00
2019-04-29T09:15:18.013Z,21.60
2019-04-29T09:17:48.803Z,21.67
2019-04-29T09:20:19.999Z,21.10
2019-04-29T09:22:52.424Z,21.20
2019-04-29T09:25:26.281Z,20.23
2019-04-29T09:28:01.984Z,19.67
2019-04-29T09:30:32.397Z,23.57
2019-04-29T09:33:03.278Z,22.40
2019-04-29T09:35:38.644Z,19.27
2019-04-29T09:38:06.565Z,25.33
2019-04-29T09:40:39.040Z,21.87
2019-04-29T09:43:15.691Z,24.70
2019-04-29T09:45:53.929Z,24.37
2019-04-29T09:48:23.727Z,23.67
2019-04-29T09:50:54.471Z,23.07
2019-04-29T09:53:25.221Z,23.30
2019-04-29T09:55:56.234Z,27.43
2019-04-29T09:58:26.995Z,26.00
2019-04-29T10:01:08.280Z,23.93
2019-04-29T10:03:57.017Z,23.33
2019-04-29T10:06:29.485Z,24.53
2019-04-29T10:09:00.368Z,21.00
2019-04-29T10:11:31.089Z,21.30
2019-04-29T10:14:01.825Z,23.93
2019-04-29T10:16:51.558Z,22.83
2019-04-29T10:19:42.197Z,21.40
2019-04-29T10:22:13.007Z,19.20
2019-04-29T10:24:43.785Z,25.70
2019-04-29T10:27:14.520Z,24.10
2019-04-29T10:29:50.829Z,21.37
2019-04-29T10:32:19.490Z,21.57
2019-04-29T10:34:50.384Z,23.60
2019-04-29T10:37:23.727Z,23.93
2019-04-29T10:39:55.438Z,24.53
2019-04-29T10:42:30.319Z,22.10
2019-04-29T10:45:11.772Z,20.63
2019-04-29T10:47:44.261Z,19.77
2019-04-29T10:50:26.125Z,20.23
2019-04-29T10:52:57.161Z,19.07
2019-04-29T10:55:29.964Z,19.57
2019-04-29T10:58:00.677Z,18.47
2019-04-29T11:00:52.823Z,19.47
2019-04-29T11:03:25.026Z,20.07
2019-04-29T11:06:01.828Z,19.03
2019-04-29T11:08:48.789Z,18.70
2019-04-29T11:11:23.293Z,18.80
2019-04-29T11:13:51.904Z,18.70
2019-04-29T11:16:27.167Z,18.50
2019-04-29T11:18:54.961Z,18.60
2019-04-29T11:21:29.489Z,19.27
2019-04-29T11:24:01.361Z,18.63
2019-04-29T11:26:33.855Z,19.13
2019-04-29T11:29:07.368Z,18.37
2019-04-29T11:31:38.495Z,20.60
2019-04-29T11:34:27.347Z,18.70
2019-04-29T11:36:58.303Z,18.50
2019-04-29T11:39:29.158Z,19.27
2019-04-29T11:42:01.585Z,18.73
2019-04-29T11:44:32.552Z,17.23
2019-04-29T11:47:03.396Z,17.37
2019-04-29T11:49:36.005Z,17.10
2019-04-29T11:52:09.810Z,16.67
2019-04-29T11:54:39.407Z,18.23
2019-04-29T11:57:11.852Z,17.73
2019-04-29T11:59:47.193Z,18.43
2019-04-29T12:02:44.563Z,17.43
2019-04-29T12:05:04.231Z,16.40
2019-04-29T12:07:33.940Z,16.47
2019-04-29T12:10:06.916Z,16.47
2019-04-29T12:12:38.572Z,18.97
2019-04-29T12:15:13.739Z,16.60
2019-04-29T12:18:01.655Z,16.30
2019-04-29T12:20:34.024Z,16.60
2019-04-29T12:23:04.867Z,15.27
2019-04-29T12:25:36.491Z,16.07
2019-04-29T12:28:18.930Z,15.10
2019-04-29T12:30:46.999Z,16.17
2019-04-29T12:33:19.373Z,15.63
2019-04-29T12:35:54.304Z,15.60
2019-04-29T12:38:48.760Z,14.30
2019-04-29T12:41:29.669Z,15.00
2019-04-29T12:43:59.421Z,14.43
2019-04-29T12:46:32.789Z,15.00
2019-04-29T12:49:08.120Z,14.87
2019-04-29T12:51:36.300Z,15.40
2019-04-29T12:54:07.232Z,16.07
2019-04-29T12:56:43.377Z,15.97
2019-04-29T12:59:11.771Z,15.73
2019-04-29T13:01:58.379Z,14.63
2019-04-29T13:04:36.051Z,14.90
2019-04-29T13:07:23.392Z,14.87
2019-04-29T13:10:01.982Z,14.80
2019-04-29T13:12:30.998Z,14.80
2019-04-29T13:15:08.019Z,16.47
2019-04-29T13:17:46.254Z,13.87
2019-04-29T13:20:17.026Z,14.77
2019-04-29T13:22:47.450Z,14.53
2019-04-29T13:25:19.771Z,14.37
2019-04-29T13:27:50.782Z,13.70
2019-04-29T13:30:21.265Z,13.73
2019-04-29T13:32:52.064Z,14.17
2019-04-29T13:35:22.874Z,14.73
2019-04-29T13:37:53.312Z,13.83
2019-04-29T13:40:24.346Z,14.30
2019-04-29T13:42:54.917Z,13.17
2019-04-29T13:45:27.455Z,13.87
2019-04-29T13:48:01.783Z,12.77
2019-04-29T13:50:39.926Z,13.13
2019-04-29T13:53:11.552Z,13.07
2019-04-29T13:55:50.154Z,14.20
2019-04-29T13:58:14.574Z,13.57
2019-04-29T14:01:03.616Z,13.77
2019-04-29T14:03:52.369Z,13.27
2019-04-29T14:06:23.410Z,14.97
2019-04-29T14:08:54.341Z,13.13
2019-04-29T14:11:25.926Z,11.97
2019-04-29T14:13:57.763Z,12.70
2019-04-29T14:16:28.686Z,13.00
2019-04-29T14:18:59.638Z,12.83
2019-04-29T14:21:31.584Z,12.37
2019-04-29T14:24:02.381Z,12.67
2019-04-29T14:26:37.095Z,11.37
2019-04-29T14:29:05.532Z,12.10
2019-04-29T14:31:36.291Z,11.80
2019-04-29T14:34:17.355Z,10.83
2019-04-29T14:36:46.951Z,10.73
2019-04-29T14:39:36.252Z,11.10
2019-04-29T14:41:55.528Z,10.17
2019-04-29T14:44:43.221Z,11.50
2019-04-29T14:47:18.812Z,10.73
2019-04-29T14:49:56.978Z,11.00
2019-04-29T14:52:27.826Z,10.97
2019-04-29T14:54:58.661Z,11.13
2019-04-29T14:57:29.085Z,10.30
2019-04-29T15:00:00.134Z,9.40
2019-04-29T15:02:30.731Z,10.30
2019-04-29T15:05:01.684Z,8.77
2019-04-29T15:07:34.021Z,9.43
2019-04-29T15:10:09.038Z,8.80
2019-04-29T15:13:02.049Z,9.23
2019-04-29T15:15:48.371Z,9.17
2019-04-29T15:18:47.143Z,9.20
2019-04-29T15:21:14.215Z,9.80
2019-04-29T15:23:45.033Z,8.73
2019-04-29T15:26:15.872Z,8.63
2019-04-29T15:28:52.367Z,7.70
2019-04-29T15:31:24.214Z,8.17
2019-04-29T15:33:55.050Z,7.90
2019-04-29T15:36:25.619Z,7.60
2019-04-29T15:39:08.889Z,7.60
2019-04-29T15:41:33.253Z,6.47
2019-04-29T15:44:07.685Z,7.30
2019-04-29T15:46:46.139Z,7.50
2019-04-29T15:49:08.337Z,7.50
2019-04-29T15:51:39.069Z,7.10
2019-04-29T15:54:14.272Z,7.00
2019-04-29T15:56:42.397Z,6.50
2019-04-29T15:59:13.188Z,7.07
2019-04-29T16:01:44.335Z,6.20
2019-04-29T16:04:20.911Z,6.73
2019-04-29T16:06:56.821Z,6.70
2019-04-29T16:09:50.742Z,6.77
2019-04-29T16:12:15.771Z,6.80
2019-04-29T16:14:49.109Z,6.50
2019-04-29T16:17:20.763Z,6.93
2019-04-29T16:19:51.789Z,6.92
2019-04-29T16:22:22.535Z,6.07
2019-04-29T16:24:59.237Z,6.50
2019-04-29T16:27:26.479Z,6.35
2019-04-29T16:29:57.527Z,6.05
2019-04-29T16:32:33.015Z,5.70
2019-04-29T16:35:04.379Z,6.03
2019-04-29T16:37:35.169Z,5.73
2019-04-29T16:40:08.767Z,6.47
2019-04-29T16:42:47.175Z,6.13
2019-04-29T16:45:18.409Z,6.17
2019-04-29T16:47:49.405Z,5.27
2019-04-29T16:50:19.889Z,5.70
2019-04-29T16:52:50.827Z,5.60
2019-04-29T16:55:21.733Z,6.00
2019-04-29T16:57:52.639Z,5.30
2019-04-29T17:00:27.903Z,5.23
2019-04-29T17:02:58.711Z,5.30
2019-04-29T17:05:29.817Z,5.20
2019-04-29T17:08:00.663Z,4.90
2019-04-29T17:10:34.719Z,4.80
2019-04-29T17:13:09.070Z,5.10
2019-04-29T17:15:51.988Z,5.43
2019-04-29T17:18:17.791Z,4.80
2019-04-29T17:20:48.624Z,5.17
2019-04-29T17:23:24.511Z,5.22
2019-04-29T17:26:09.877Z,5.07
2019-04-29T17:29:11.895Z,5.37
2019-04-29T17:31:56.047Z,5.40
2019-04-29T17:34:54.676Z,4.80
2019-04-29T17:37:01.273Z,4.90
2019-04-29T17:39:31.331Z,5.00
2019-04-29T17:42:01.743Z,4.80
2019-04-29T17:44:34.235Z,4.90
2019-04-29T17:47:11.467Z,4.83
2019-04-29T17:49:46.764Z,5.00
2019-04-29T17:52:22.011Z,4.70
2019-04-29T17:54:55.040Z,4.80
2019-04-29T17:57:31.335Z,4.43
2019-04-29T18:00:17.305Z,4.57
2019-04-29T18:03:00.939Z,3.80
2019-04-29T18:05:43.567Z,4.10
2019-04-29T18:08:10.856Z,3.80
2019-04-29T18:10:43.470Z,3.60
2019-04-29T18:13:18.780Z,4.03
2019-04-29T18:15:58.593Z,3.73
2019-04-29T18:18:20.650Z,3.77
2019-04-29T18:21:06.463Z,3.57
2019-04-29T18:23:56.797Z,3.73
2019-04-29T18:26:48.108Z,3.87
2019-04-29T18:29:17.690Z,3.23
2019-04-29T18:31:48.616Z,4.13
2019-04-29T18:34:19.432Z,3.87
2019-04-29T18:36:50.163Z,3.90
2019-04-29T18:39:28.565Z,4.13
2019-04-29T18:41:58.741Z,3.73
2019-04-29T18:44:30.760Z,4.30
2019-04-29T18:47:01.220Z,4.40
2019-04-29T18:49:31.922Z,4.20
2019-04-29T18:52:05.632Z,4.30
2019-04-29T18:54:35.763Z,4.10
2019-04-29T18:57:06.792Z,3.93
2019-04-29T18:59:37.734Z,4.37
2019-04-29T19:02:09.514Z,3.70
2019-04-29T19:04:42.400Z,4.10
2019-04-29T19:07:25.443Z,4.70
2019-04-29T19:09:51.537Z,4.60
2019-04-29T19:12:22.491Z,4.20
2019-04-29T19:14:59.650Z,4.53
2019-04-29T19:17:30.891Z,4.77
2019-04-29T19:19:59.502Z,4.13
2019-04-29T19:22:30.389Z,4.00
2019-04-29T19:25:02.285Z,4.13
2019-04-29T19:27:37.082Z,4.20
2019-04-29T19:30:08.360Z,4.90
2019-04-29T19:32:39.192Z,4.40
2019-04-29T19:35:11.310Z,4.47
2019-04-29T19:37:42.216Z,4.73
2019-04-29T19:40:15.000Z,4.27
2019-04-29T19:42:47.097Z,4.40
2019-04-29T19:45:18.004Z,4.20
2019-04-29T19:47:53.162Z,4.30
2019-04-29T19:50:21.912Z,4.20
2019-04-29T19:52:52.809Z,4.30
2019-04-29T19:55:25.262Z,4.47
2019-04-29T19:57:57.444Z,4.33
2019-04-29T20:00:31.245Z,4.30
2019-04-29T20:03:02.265Z,4.50
2019-04-29T20:05:46.210Z,3.90
2019-04-29T20:08:37.457Z,4.37
2019-04-29T20:10:51.529Z,4.30
2019-04-29T20:13:30.703Z,4.10
2019-04-29T20:16:10.009Z,3.70
2019-04-29T20:18:40.428Z,4.00
2019-04-29T20:21:20.498Z,4.30
2019-04-29T20:23:42.708Z,4.20
2019-04-29T20:26:18.496Z,4.30
2019-04-29T20:28:46.149Z,3.80
2019-04-29T20:31:22.077Z,4.10
2019-04-29T20:33:49.872Z,4.27
2019-04-29T20:36:33.092Z,4.50
2019-04-29T20:38:53.334Z,4.20
2019-04-29T20:41:38.117Z,4.43
2019-04-29T20:44:00.537Z,4.13
2019-04-29T20:46:41.022Z,4.53
2019-04-29T20:49:01.886Z,4.17
2019-04-29T20:51:48.667Z,4.00
2019-04-29T20:54:19.920Z,4.20
2019-04-29T20:57:01.994Z,4.20
2019-04-29T20:59:25.597Z,4.37
2019-04-29T21:02:10.794Z,3.90
2019-04-29T21:04:33.812Z,3.83
2019-04-29T21:07:02.776Z,4.27
2019-04-29T21:10:06.784Z,4.30
2019-04-29T21:12:38.439Z,4.33
2019-04-29T21:15:24.955Z,4.57
2019-04-29T21:17:58.682Z,5.27
2019-04-29T21:20:35.076Z,4.50
2019-04-29T21:23:05.674Z,4.27
2019-04-29T21:25:37.172Z,4.23
2019-04-29T21:28:08.062Z,4.37
2019-04-29T21:30:42.589Z,4.40
2019-04-29T21:33:17.903Z,5.00
2019-04-29T21:35:58.006Z,4.97
2019-04-29T21:38:48.568Z,4.80
2019-04-29T21:41:36.210Z,5.10
2019-04-29T21:44:07.808Z,4.33
2019-04-29T21:46:38.807Z,4.20
2019-04-29T21:49:11.565Z,4.20
2019-04-29T21:51:45.955Z,5.03
2019-04-29T21:54:15.682Z,4.23
2019-04-29T21:56:48.053Z,4.80
2019-04-29T21:59:18.785Z,5.40
2019-04-29T22:01:49.660Z,5.00
2019-04-29T22:04:20.398Z,5.10
2019-04-29T22:06:51.362Z,5.10
2019-04-29T22:09:35.279Z,5.00
2019-04-29T22:11:56.072Z,5.10
2019-04-29T22:14:26.642Z,4.40
2019-04-29T22:16:57.333Z,5.03
2019-04-29T22:19:28.227Z,5.10
2019-04-29T22:22:01.450Z,4.70
2019-04-29T22:24:31.687Z,5.00
2019-04-29T22:27:04.114Z,5.00
2019-04-29T22:29:37.294Z,5.27
2019-04-29T22:32:14.418Z,4.60
2019-04-29T22:34:39.747Z,4.90
2019-04-29T22:37:10.203Z,5.27
2019-04-29T22:39:41.069Z,4.87
2019-04-29T22:42:16.383Z,5.03
2019-04-29T22:44:47.219Z,5.07
2019-04-29T22:47:23.449Z,4.63
2019-04-29T22:49:50.430Z,5.07
2019-04-29T22:52:21.136Z,5.10
2019-04-29T22:54:52.809Z,4.80
2019-04-29T22:57:30.137Z,4.83
2019-04-29T22:59:57.288Z,4.57
2019-04-29T23:02:29.010Z,4.67
2019-04-29T23:04:59.819Z,4.43
2019-04-29T23:07:30.693Z,5.00
2019-04-29T23:10:01.505Z,4.80
2019-04-29T23:12:32.227Z,5.07
2019-04-29T23:15:06.952Z,4.80
2019-04-29T23:17:37.748Z,5.30
2019-04-29T23:20:29.090Z,4.80
2019-04-29T23:23:10.014Z,4.83
2019-04-29T23:25:48.393Z,5.30
2019-04-29T23:28:22.474Z,5.13
2019-04-29T23:30:52.164Z,4.97
2019-04-29T23:33:24.547Z,4.60
2019-04-29T23:35:56.249Z,4.50
2019-04-29T23:38:26.804Z,4.60
2019-04-29T23:40:57.535Z,4.97
2019-04-29T23:43:28.683Z,4.63
2019-04-29T23:46:00.683Z,4.77
2019-04-29T23:48:38.787Z,5.60
2019-04-29T23:51:05.372Z,4.40
2019-04-29T23:53:36.630Z,5.13
2019-04-29T23:56:09.640Z,5.07
2019-04-29T23:58:47.309Z,5.00
